Time;durP1;ratioP1;P1;durP2;ratioP2;P2;SDS_P1;SDS_P2;PMS_P1;PMS_P2;Temp;Humidity;BMP_temperature;BMP_pressure;BME280_temperature;BME280_humidity;BME280_pressure;Samples;Min_cycle;Max_cycle;Signal;HPM_P1;HPM_P2
2022/07/04 00:02:00;;;;;;;4.97;2.40;;;;;;;-144.47;44.54;53046.75;5065865;28;20032;-67
2022/07/04 00:04:25;;;;;;;5.35;2.10;;;;;;;-144.47;44.79;53054.72;5054619;28;20025;-67
2022/07/04 00:06:51;;;;;;;7.88;1.92;;;;;;;-144.47;44.91;53050.75;5054539;28;20109;-66
2022/07/04 00:09:16;;;;;;;5.10;2.20;;;;;;;-144.47;44.98;53062.66;5055162;28;20021;-67
2022/07/04 00:11:42;;;;;;;10.30;2.25;;;;;;;-144.47;45.30;53066.63;5053772;28;20025;-67
2022/07/04 00:14:07;;;;;;;6.30;2.17;;;;;;;-144.47;45.43;53092.44;5053968;28;20103;-68
2022/07/04 00:16:34;;;;;;;11.40;2.47;;;;;;;-144.47;45.73;53054.72;5053725;28;20113;-65
2022/07/04 00:19:00;;;;;;;6.75;2.22;;;;;;;-144.47;45.88;53056.69;5053810;28;20036;-68
2022/07/04 00:21:25;;;;;;;12.93;2.83;;;;;;;-144.47;46.10;53072.59;5053157;28;20037;-68
2022/07/04 00:23:50;;;;;;;14.02;2.22;;;;;;;-144.47;46.43;53046.75;5052571;28;20020;-67
2022/07/04 00:26:16;;;;;;;5.30;2.58;;;;;;;-144.47;46.65;53088.47;5052231;28;20036;-67
2022/07/04 00:28:42;;;;;;;12.48;2.58;;;;;;;-144.47;47.14;53108.34;5051312;28;20021;-65
2022/07/04 00:31:07;;;;;;;7.45;2.72;;;;;;;-144.47;47.45;53074.56;5049697;28;20482;-68
2022/07/04 00:33:32;;;;;;;10.40;2.67;;;;;;;-144.47;48.16;53094.44;5052035;28;20024;-70
2022/07/04 00:35:58;;;;;;;5.82;2.85;;;;;;;-144.47;48.79;53046.75;5050549;28;20115;-68
2022/07/04 00:38:23;;;;;;;10.43;3.72;;;;;;;-144.47;49.11;53098.41;5050542;28;20025;-68
2022/07/04 00:40:49;;;;;;;12.75;3.80;;;;;;;-144.47;49.33;53106.34;5052341;28;20025;-67
2022/07/04 00:43:22;;;;;;;13.70;5.65;;;;;;;-144.47;49.90;53058.69;5053094;28;20108;-66
2022/07/04 00:45:47;;;;;;;14.70;6.00;;;;;;;-144.47;50.74;53082.53;5049814;28;20036;-69
2022/07/04 00:48:15;;;;;;;14.80;6.22;;;;;;;-144.47;51.49;53148.06;5052052;28;20017;-68
2022/07/04 00:53:08;;;;;;;15.93;6.13;;;;;;;-144.47;52.20;53104.38;5048221;28;20105;-69
2022/07/04 00:55:33;;;;;;;12.43;5.25;;;;;;;-144.47;52.59;53108.34;5050704;28;20029;-67
2022/07/04 00:57:59;;;;;;;11.35;5.05;;;;;;;-144.47;52.82;53094.44;5051434;28;20036;-68
2022/07/04 01:00:24;;;;;;;8.68;4.72;;;;;;;-144.47;52.99;53094.44;5052163;28;20047;-69
2022/07/04 01:02:50;;;;;;;11.30;5.07;;;;;;;-144.47;53.34;53104.38;5052636;28;20039;-67
2022/07/04 01:05:15;;;;;;;12.68;4.88;;;;;;;-144.47;53.58;53100.41;5051676;28;20112;-69
2022/07/04 01:07:42;;;;;;;11.02;4.60;;;;;;;-144.47;54.11;53086.50;5050004;28;20397;-67
2022/07/04 01:10:08;;;;;;;9.32;4.68;;;;;;;-144.47;54.40;53102.38;5050082;28;20033;-69
2022/07/04 01:12:35;;;;;;;9.95;4.03;;;;;;;-144.47;55.13;53114.31;5050264;28;20031;-68
2022/07/04 01:15:00;;;;;;;7.80;4.28;;;;;;;-144.47;55.55;53110.31;5050029;28;20077;-67
2022/07/04 01:17:26;;;;;;;9.55;4.00;;;;;;;-144.47;55.82;53106.34;5049950;28;20111;-69
2022/07/04 01:19:51;;;;;;;9.75;3.95;;;;;;;-144.47;55.79;53096.41;5049693;28;20060;-66
2022/07/04 01:22:19;;;;;;;13.05;3.78;;;;;;;-144.47;56.13;53132.19;5050343;28;20055;-67
2022/07/04 01:24:44;;;;;;;11.68;4.65;;;;;;;-144.47;56.29;53128.22;5050733;28;20025;-69
2022/07/04 01:27:09;;;;;;;9.95;4.25;;;;;;;-144.47;56.43;53128.22;5050659;28;20124;-67
2022/07/04 01:29:35;;;;;;;10.35;4.22;;;;;;;-144.47;56.81;53161.97;5050049;28;20027;-72
2022/07/04 01:32:08;;;;;;;7.38;4.28;;;;;;;-144.47;56.87;53118.28;5049803;28;20476;-68
2022/07/04 01:34:34;;;;;;;7.68;3.50;;;;;;;-144.47;56.84;53130.19;5050357;28;20363;-67
2022/07/04 01:36:59;;;;;;;12.40;4.13;;;;;;;-144.47;57.12;53126.22;5050713;28;20052;-68
2022/07/04 01:39:26;;;;;;;9.90;4.28;;;;;;;-144.47;56.99;53108.34;5050005;28;20051;-69
2022/07/04 01:41:51;;;;;;;13.48;4.15;;;;;;;-144.47;57.41;53094.44;5050090;28;20291;-68
2022/07/04 01:44:16;;;;;;;13.30;4.35;;;;;;;-144.47;57.57;53124.22;5048741;28;20324;-67
2022/07/04 01:46:42;;;;;;;9.60;3.97;;;;;;;-144.47;57.68;53158.00;5049590;28;20017;-68
2022/07/04 01:49:08;;;;;;;10.95;4.15;;;;;;;-144.47;57.75;53114.31;5048148;28;20017;-67
2022/07/04 01:51:34;;;;;;;8.75;3.67;;;;;;;-144.47;57.51;53124.22;5049471;28;20028;-67
2022/07/04 01:53:59;;;;;;;11.68;3.83;;;;;;;-144.47;57.28;53108.34;5049484;28;20025;-67
2022/07/04 01:56:24;;;;;;;7.38;3.90;;;;;;;-144.47;57.21;53126.22;5049209;28;20553;-69
2022/07/04 01:58:50;;;;;;;14.50;4.25;;;;;;;-144.47;57.46;53144.09;5048943;28;20140;-67
2022/07/04 02:01:30;;;;;;;11.55;4.22;;;;;;;-144.47;57.56;53160.00;5049132;28;20435;-69
2022/07/04 02:04:00;;;;;;;8.10;4.28;;;;;;;-144.47;57.54;53104.38;5038175;28;20029;-67
2022/07/04 02:06:26;;;;;;;7.90;3.67;;;;;;;-144.47;57.42;53100.41;5048258;28;20024;-68
2022/07/04 02:14:21;;;;;;;7.70;4.07;;;;;;;-144.47;58.28;53169.91;5048205;28;20086;-67
2022/07/04 02:16:46;;;;;;;7.53;4.40;;;;;;;-144.47;58.46;53102.38;5048289;28;20028;-67
2022/07/04 02:19:11;;;;;;;13.15;4.57;;;;;;;-144.47;58.90;53134.16;5048650;28;20031;-68
2022/07/04 02:21:37;;;;;;;11.32;4.72;;;;;;;-144.47;59.07;53130.19;5048627;28;20079;-65
2022/07/04 02:24:03;;;;;;;8.80;4.43;;;;;;;-144.47;59.30;53150.06;5048813;28;20474;-69
2022/07/04 02:26:28;;;;;;;8.60;4.20;;;;;;;-144.47;59.52;53163.97;5047777;28;20029;-67
2022/07/04 02:28:53;;;;;;;10.73;4.47;;;;;;;-144.47;59.80;53126.22;5048398;28;20021;-70
2022/07/04 02:31:19;;;;;;;11.07;4.22;;;;;;;-144.47;59.66;53171.91;5048215;28;20383;-67
2022/07/04 02:33:44;;;;;;;14.02;4.45;;;;;;;-144.47;59.77;53142.09;5048697;28;20024;-70
2022/07/04 02:36:09;;;;;;;14.23;5.07;;;;;;;-144.47;59.90;53130.19;5047938;28;20048;-67
2022/07/04 02:38:35;;;;;;;15.65;4.90;;;;;;;-144.47;59.98;53161.97;5048042;28;20021;-69
2022/07/04 02:41:00;;;;;;;11.32;5.28;;;;;;;-144.47;60.05;53169.91;5047859;28;20110;-70
2022/07/04 02:43:25;;;;;;;14.85;4.82;;;;;;;-144.47;60.35;53158.00;5047923;28;20028;-67
2022/07/04 02:45:51;;;;;;;16.50;4.55;;;;;;;-144.47;60.30;53160.00;5045107;28;20020;-69
2022/07/04 02:48:17;;;;;;;11.80;4.93;;;;;;;-144.47;60.80;53144.09;5047893;28;20068;-68
2022/07/04 02:50:42;;;;;;;12.82;4.53;;;;;;;-144.47;60.82;53181.84;5047304;28;20386;-67
2022/07/04 02:53:07;;;;;;;14.10;4.90;;;;;;;-144.47;60.81;53158.00;5046605;28;20112;-69
2022/07/04 02:55:33;;;;;;;11.73;5.45;;;;;;;-144.47;60.85;53165.94;5047966;28;20031;-70
2022/07/04 02:57:58;;;;;;;13.18;4.88;;;;;;;-144.47;61.20;53171.91;5047801;28;20095;-65
2022/07/04 03:00:24;;;;;;;9.55;4.95;;;;;;;-144.47;61.19;53158.00;5047581;28;20047;-68
2022/07/04 03:02:49;;;;;;;14.23;5.13;;;;;;;-144.47;61.01;53148.06;5047890;28;20021;-68
2022/07/04 03:05:14;;;;;;;9.65;5.05;;;;;;;-144.47;61.15;53173.88;5048739;28;20482;-66
2022/07/04 03:07:40;;;;;;;17.45;4.90;;;;;;;-144.47;61.38;53150.06;5048553;28;20087;-69
2022/07/04 03:10:06;;;;;;;12.77;4.90;;;;;;;-144.47;61.09;53177.88;5049256;28;20120;-69
2022/07/04 03:12:31;;;;;;;13.90;4.38;;;;;;;-144.47;61.38;53136.16;5048156;28;20112;-71
2022/07/04 03:14:58;;;;;;;11.32;5.13;;;;;;;-144.47;61.19;53142.09;5047834;28;20076;-68
2022/07/04 03:17:28;;;;;;;13.05;4.63;;;;;;;-144.47;61.04;53146.09;5047218;28;20391;-67
2022/07/04 03:19:54;;;;;;;11.25;4.53;;;;;;;-144.47;61.04;53161.97;5048355;28;20024;-70
2022/07/04 03:22:19;;;;;;;8.07;4.63;;;;;;;-144.47;60.89;53158.00;5045749;28;20126;-69
2022/07/04 03:24:45;;;;;;;8.75;4.25;;;;;;;-144.47;61.07;53160.00;5047194;28;20099;-66
2022/07/04 03:27:10;;;;;;;10.20;3.97;;;;;;;-144.47;60.99;53156.00;5047329;28;20027;-69
2022/07/04 03:29:35;;;;;;;16.98;4.88;;;;;;;-144.47;60.90;53142.09;5048228;28;20017;-65
2022/07/04 03:32:01;;;;;;;8.40;3.95;;;;;;;-144.47;60.98;53150.06;5046482;28;20350;-68
2022/07/04 03:34:26;;;;;;;15.63;4.30;;;;;;;-144.47;61.12;53165.94;5047961;28;20470;-66
2022/07/04 03:36:52;;;;;;;8.43;4.10;;;;;;;-144.47;60.99;53140.13;5048076;28;20025;-69
2022/07/04 03:39:17;;;;;;;8.85;4.13;;;;;;;-144.47;60.87;53128.22;5048064;28;20029;-66
2022/07/04 03:41:42;;;;;;;16.23;4.72;;;;;;;-144.47;60.52;53171.91;5047303;28;20017;-71
2022/07/04 03:44:08;;;;;;;6.65;3.72;;;;;;;-144.47;60.43;53154.03;5047427;28;20121;-70
2022/07/04 03:46:33;;;;;;;12.13;3.95;;;;;;;-144.47;60.56;53169.91;5047596;28;20100;-66
2022/07/04 03:48:59;;;;;;;9.80;4.13;;;;;;;-144.47;60.68;53152.03;5048343;28;20395;-68
2022/07/04 03:51:24;;;;;;;7.85;3.80;;;;;;;-144.47;60.79;53154.03;5048162;28;20094;-66
2022/07/04 03:53:50;;;;;;;11.15;4.28;;;;;;;-144.47;60.98;53150.06;5048692;28;20101;-70
2022/07/04 03:56:15;;;;;;;9.45;4.10;;;;;;;-144.47;60.90;53142.09;5046760;28;20452;-69
2022/07/04 03:58:42;;;;;;;9.35;4.00;;;;;;;-144.47;60.97;53177.88;5046955;28;20079;-70
2022/07/04 04:01:08;;;;;;;11.15;4.00;;;;;;;-144.47;61.07;53146.09;5047035;28;20029;-69
2022/07/04 04:06:17;;;;;;;9.68;4.03;;;;;;;-144.47;61.42;53160.00;5051396;28;20039;-69
2022/07/04 04:08:43;;;;;;;13.88;3.45;;;;;;;-144.47;61.34;53165.94;5050860;28;20017;-69
2022/07/04 04:11:08;;;;;;;8.88;3.78;;;;;;;-144.47;61.29;53193.75;5049947;28;20393;-66
2022/07/04 04:13:34;;;;;;;10.10;3.53;;;;;;;-144.47;61.51;53167.94;5050583;28;20021;-69
2022/07/04 04:15:59;;;;;;;6.28;3.97;;;;;;;-144.47;60.89;53185.81;5050148;28;20462;-66
2022/07/04 04:18:24;;;;;;;12.77;3.80;;;;;;;-144.47;60.90;53169.91;5050679;28;20098;-68
2022/07/04 04:20:50;;;;;;;8.55;3.40;;;;;;;-144.47;60.48;53146.09;5050424;28;20021;-68
2022/07/04 04:23:15;;;;;;;16.13;3.83;;;;;;;-144.47;60.28;53158.00;5050689;28;20394;-66
2022/07/04 04:25:40;;;;;;;6.72;3.65;;;;;;;-144.47;60.21;53183.81;5050933;28;20112;-70
2022/07/04 04:28:06;;;;;;;10.00;3.50;;;;;;;-144.47;59.80;53122.25;5050807;28;20029;-67
2022/07/04 04:30:31;;;;;;;7.38;3.40;;;;;;;-144.47;60.04;53167.94;5050643;28;20033;-70
2022/07/04 04:32:57;;;;;;;7.20;3.22;;;;;;;-144.47;59.65;53183.81;5048590;28;20075;-69
2022/07/04 04:35:22;;;;;;;7.82;3.28;;;;;;;-144.47;59.93;53150.06;5047849;28;20499;-69
2022/07/04 04:37:47;;;;;;;11.63;3.13;;;;;;;-144.47;59.80;53177.88;5050887;28;20075;-67
2022/07/04 04:40:14;;;;;;;7.43;3.03;;;;;;;-144.47;59.15;53122.25;5050466;28;20118;-70
2022/07/04 04:42:40;;;;;;;7.53;3.30;;;;;;;-144.47;59.32;53187.78;5040360;28;20028;-71
2022/07/04 04:45:05;;;;;;;11.20;4.45;;;;;;;-144.47;59.19;53142.09;5049412;28;20017;-67
2022/07/04 04:47:30;;;;;;;7.50;3.08;;;;;;;-144.47;58.95;53167.94;5050679;28;20069;-70
2022/07/04 04:49:56;;;;;;;10.65;2.72;;;;;;;-144.47;58.48;53171.91;5051355;28;20021;-70
2022/07/04 04:52:21;;;;;;;14.77;3.25;;;;;;;-144.47;57.83;53150.06;5052558;28;20029;-70
2022/07/04 04:54:46;;;;;;;10.32;3.20;;;;;;;-144.47;57.31;53120.25;5050096;28;20083;-68
2022/07/04 04:57:12;;;;;;;8.23;2.70;;;;;;;-144.47;57.04;53118.28;5048490;28;20108;-73
2022/07/04 04:59:37;;;;;;;4.65;2.50;;;;;;;-144.47;56.95;53138.13;5046752;28;20524;-70
2022/07/04 05:02:03;;;;;;;6.03;2.63;;;;;;;-144.47;56.69;53106.34;5048912;28;20338;-67
2022/07/04 05:04:28;;;;;;;11.63;2.78;;;;;;;-144.47;56.70;53122.25;5049537;28;20393;-71
2022/07/04 05:06:54;;;;;;;6.47;2.67;;;;;;;-144.47;56.39;53114.31;5038648;28;20031;-68
2022/07/04 05:09:20;;;;;;;9.95;3.15;;;;;;;-144.47;56.44;53132.19;5047805;28;20375;-71
2022/07/04 05:11:46;;;;;;;11.73;3.47;;;;;;;-144.47;56.23;53126.22;5049584;28;20490;-67
2022/07/04 05:14:13;;;;;;;8.73;2.55;;;;;;;-144.47;55.92;53152.03;5048559;28;20043;-69
2022/07/04 05:16:38;;;;;;;5.53;2.65;;;;;;;-144.47;55.77;53144.09;5047835;28;20100;-70
2022/07/04 05:19:04;;;;;;;7.70;2.67;;;;;;;-144.47;55.65;53163.97;5050088;28;20543;-69
2022/07/04 05:21:30;;;;;;;7.38;2.47;;;;;;;-144.47;55.51;53126.22;5045903;28;20063;-71
2022/07/04 05:23:56;;;;;;;7.35;2.55;;;;;;;-144.47;55.43;53142.09;5048833;28;20025;-66
2022/07/04 05:26:22;;;;;;;7.57;2.65;;;;;;;-144.47;54.75;53181.84;5043051;28;20037;-69
2022/07/04 05:28:48;;;;;;;5.50;2.30;;;;;;;-144.47;55.16;53150.06;5049351;28;20086;-72
2022/07/04 05:31:13;;;;;;;11.77;2.30;;;;;;;-144.47;54.58;53140.13;5045547;28;20029;-68
2022/07/04 05:33:38;;;;;;;7.57;2.20;;;;;;;-144.47;54.14;53092.44;5047238;28;20028;-70
2022/07/04 05:36:04;;;;;;;6.88;2.40;;;;;;;-144.47;54.16;53146.09;5044972;28;20032;-71
2022/07/04 05:38:29;;;;;;;8.50;2.97;;;;;;;-144.47;54.30;53146.09;5051342;28;20029;-70
2022/07/04 05:40:55;;;;;;;10.57;2.40;;;;;;;-144.47;54.11;53142.09;5050677;28;20028;-68
2022/07/04 05:43:21;;;;;;;8.57;2.30;;;;;;;-144.47;54.04;53124.22;5050214;28;20017;-69
2022/07/04 05:45:48;;;;;;;5.82;2.30;;;;;;;-144.47;53.68;53122.25;5049342;28;20051;-69
2022/07/04 05:48:13;;;;;;;11.82;2.75;;;;;;;-144.47;53.74;53142.09;5051436;28;20039;-69
2022/07/04 05:50:39;;;;;;;10.40;2.53;;;;;;;-144.47;53.90;53118.28;5051189;28;20399;-69
2022/07/04 05:53:04;;;;;;;5.75;2.10;;;;;;;-144.47;53.96;53106.34;5058235;28;20025;-69
2022/07/04 05:55:30;;;;;;;5.53;1.90;;;;;;;-144.47;53.88;53122.25;5055317;28;20423;-68
2022/07/04 05:57:55;;;;;;;13.57;2.65;;;;;;;-144.47;53.56;53114.31;5049377;28;20057;-69
2022/07/04 06:00:21;;;;;;;5.28;2.45;;;;;;;-144.47;53.30;53074.56;5052361;28;20029;-71
2022/07/04 06:02:46;;;;;;;8.40;2.08;;;;;;;-144.47;53.07;53124.22;5049994;28;20500;-69
2022/07/04 06:05:12;;;;;;;12.32;2.42;;;;;;;-144.47;52.71;53110.31;5048388;28;20040;-69
2022/07/04 06:07:37;;;;;;;10.65;2.08;;;;;;;-144.47;52.91;53148.06;5050015;28;20025;-70
2022/07/04 06:10:04;;;;;;;12.95;2.28;;;;;;;-144.47;52.77;53112.31;5047795;28;20013;-68
2022/07/04 06:12:29;;;;;;;13.55;2.15;;;;;;;-144.47;52.63;53102.38;5048532;28;20017;-70
2022/07/04 06:14:54;;;;;;;6.72;2.17;;;;;;;-144.47;52.11;53116.28;5048414;28;20021;-69
2022/07/04 06:17:21;;;;;;;6.10;2.22;;;;;;;-144.47;52.05;53148.06;5047874;28;20079;-73
2022/07/04 06:19:46;;;;;;;9.25;2.35;;;;;;;-144.47;51.04;53092.44;5048933;28;20394;-71
2022/07/04 06:22:12;;;;;;;7.28;2.53;;;;;;;-144.47;51.01;53118.28;5049508;28;20036;-70
2022/07/04 06:24:38;;;;;;;8.23;1.88;;;;;;;-144.47;50.75;53112.31;5048804;28;20038;-71
2022/07/04 06:27:04;;;;;;;6.63;1.70;;;;;;;-144.47;50.47;53120.25;5047325;28;20468;-70
2022/07/04 06:29:29;;;;;;;6.15;1.95;;;;;;;-144.47;50.08;53104.38;5048539;28;20095;-68
2022/07/04 06:31:55;;;;;;;6.63;1.77;;;;;;;-144.47;49.71;53114.31;5048135;28;20112;-71
2022/07/04 06:37:04;;;;;;;6.55;1.80;;;;;;;-144.47;48.85;53078.53;5035323;28;20139;-68
2022/07/04 06:39:29;;;;;;;9.80;1.90;;;;;;;-144.47;48.46;53082.53;5047489;28;20041;-68
2022/07/04 06:41:55;;;;;;;5.68;1.75;;;;;;;-144.47;48.46;53108.34;5047901;28;20320;-70
2022/07/04 06:44:20;;;;;;;3.72;1.70;;;;;;;-144.47;49.01;53100.41;5047552;28;20033;-68
2022/07/04 06:46:46;;;;;;;3.40;1.40;;;;;;;-144.47;48.71;53074.56;5039689;28;20390;-68
2022/07/04 06:49:11;;;;;;;3.58;1.35;;;;;;;-144.47;48.83;53052.72;5040916;28;20090;-69
2022/07/04 06:54:05;;;;;;;3.95;1.50;;;;;;;-144.47;48.39;53068.63;5048167;28;20057;-67
2022/07/04 06:56:31;;;;;;;2.53;1.30;;;;;;;-144.47;48.41;53106.34;5048854;28;20028;-67
2022/07/04 06:58:56;;;;;;;7.70;1.73;;;;;;;-144.47;48.21;53100.41;5049082;28;20493;-66
2022/07/04 07:01:22;;;;;;;6.40;1.70;;;;;;;-144.47;48.23;53090.47;5048466;28;20103;-66
2022/07/04 07:03:47;;;;;;;3.88;1.58;;;;;;;-144.47;48.09;53090.47;5049439;28;20051;-66
2022/07/04 07:06:13;;;;;;;2.58;1.42;;;;;;;-144.47;47.45;53118.28;5049123;28;20024;-68
2022/07/04 07:08:38;;;;;;;7.20;1.52;;;;;;;-144.47;47.06;53142.09;5049821;28;20032;-67
2022/07/04 07:11:13;;;;;;;5.72;1.70;;;;;;;-144.47;47.09;53074.56;5049068;28;20101;-68
2022/07/04 07:13:47;;;;;;;6.35;1.60;;;;;;;-144.47;47.00;53122.25;5048047;28;20028;-67
2022/07/04 07:16:13;;;;;;;6.00;1.70;;;;;;;-144.47;46.61;53082.53;5043149;28;20057;-66
2022/07/04 07:18:39;;;;;;;4.03;1.20;;;;;;;-144.47;46.57;53070.59;5048110;28;20029;-67
2022/07/04 07:21:04;;;;;;;5.13;1.42;;;;;;;-144.47;46.45;53118.28;5047628;28;20074;-69
2022/07/04 07:23:30;;;;;;;6.82;1.25;;;;;;;-144.47;46.04;53114.31;5049085;28;20024;-69
2022/07/04 07:25:55;;;;;;;5.53;1.33;;;;;;;-144.47;45.13;53090.47;5048841;28;20024;-66
2022/07/04 07:28:21;;;;;;;6.65;1.20;;;;;;;-144.47;45.18;53074.56;5049937;28;20013;-66
2022/07/04 07:30:46;;;;;;;3.83;1.40;;;;;;;-144.47;44.33;53084.50;5050639;28;20025;-66
2022/07/04 07:33:11;;;;;;;5.50;1.30;;;;;;;-144.47;44.13;53082.53;5049329;28;20453;-69
2022/07/04 07:35:37;;;;;;;6.10;1.70;;;;;;;-144.47;43.86;53114.31;5048416;28;20029;-68
2022/07/04 07:38:03;;;;;;;5.70;1.40;;;;;;;-144.47;44.11;53074.56;5051286;28;20174;-66
2022/07/04 07:40:28;;;;;;;6.18;1.50;;;;;;;-144.47;43.37;53050.75;5053106;28;20170;-67
2022/07/04 07:42:54;;;;;;;3.13;1.27;;;;;;;-144.47;43.05;53122.25;5052596;28;20048;-68
2022/07/04 07:45:20;;;;;;;15.57;3.20;;;;;;;-144.47;42.05;53086.50;5051587;28;20053;-68
2022/07/04 07:47:46;;;;;;;8.25;2.10;;;;;;;-144.47;40.78;53070.59;5052668;28;20379;-68
2022/07/04 07:50:11;;;;;;;8.30;1.55;;;;;;;-144.47;40.96;53094.44;5051429;28;20031;-68
2022/07/04 07:52:37;;;;;;;5.95;1.05;;;;;;;-144.47;40.88;53046.75;5051368;28;20029;-66
2022/07/04 07:55:03;;;;;;;4.78;1.52;;;;;;;-144.47;41.58;53102.38;5052397;28;20020;-65
2022/07/04 07:57:28;;;;;;;3.05;1.20;;;;;;;-144.47;41.51;53094.44;5052141;28;20074;-69
2022/07/04 07:59:54;;;;;;;5.63;1.30;;;;;;;-144.47;41.56;53110.31;5050289;28;20112;-66
2022/07/04 08:02:20;;;;;;;6.25;1.42;;;;;;;-144.47;42.18;53056.69;5053156;28;20031;-69
2022/07/04 08:04:45;;;;;;;2.72;1.15;;;;;;;-144.47;42.00;53074.56;5052562;28;20112;-68
2022/07/04 08:07:14;;;;;;;6.03;1.23;;;;;;;-144.47;41.75;53080.53;5052349;28;20025;-68
2022/07/04 08:09:40;;;;;;;2.92;1.27;;;;;;;-144.47;40.82;53074.56;5051874;28;20028;-64
2022/07/04 08:12:06;;;;;;;5.45;1.35;;;;;;;-144.47;40.13;53054.72;5051309;28;20047;-66
2022/07/04 08:14:33;;;;;;;10.13;1.70;;;;;;;-144.47;40.17;53054.72;5052097;28;20112;-68
2022/07/04 08:16:59;;;;;;;4.18;1.33;;;;;;;-144.47;40.16;53078.53;5051588;28;20035;-70
2022/07/04 08:19:24;;;;;;;2.78;1.10;;;;;;;-144.47;39.54;53048.75;5052099;28;20029;-66
2022/07/04 08:21:51;;;;;;;6.72;1.50;;;;;;;-144.47;40.38;53072.59;5052553;28;20029;-68
2022/07/04 08:24:17;;;;;;;6.38;1.50;;;;;;;-144.47;40.06;53046.75;5051059;28;20506;-69
2022/07/04 08:26:43;;;;;;;8.88;1.83;;;;;;;-144.47;39.68;53082.53;5050424;28;20087;-68
2022/07/04 08:29:17;;;;;;;4.40;1.52;;;;;;;-144.47;39.24;53058.69;5051859;28;20108;-69
2022/07/04 08:31:43;;;;;;;7.68;1.38;;;;;;;-144.47;39.53;53042.78;5051704;28;20104;-66
2022/07/04 08:34:08;;;;;;;4.40;1.27;;;;;;;-144.47;40.04;53062.66;5052461;28;20159;-69
2022/07/04 08:36:34;;;;;;;8.27;1.30;;;;;;;-144.47;40.16;53078.53;5052058;28;20021;-68
2022/07/04 08:38:59;;;;;;;4.50;1.67;;;;;;;-144.47;40.71;53050.75;5052847;28;20029;-67
2022/07/04 08:41:26;;;;;;;4.43;1.25;;;;;;;-144.47;40.43;53028.88;5051748;28;20029;-67
2022/07/04 08:43:53;;;;;;;5.90;1.58;;;;;;;-144.47;40.72;53078.53;5051927;28;20029;-65
2022/07/04 08:46:21;;;;;;;14.55;2.83;;;;;;;-144.47;41.05;53076.56;5043407;28;20025;-70
2022/07/04 08:48:52;;;;;;;16.88;2.40;;;;;;;-144.47;41.25;53054.72;5051017;28;20462;-68
2022/07/04 08:51:32;;;;;;;6.47;1.63;;;;;;;-144.47;41.30;53034.84;5052349;28;20044;-65
2022/07/04 08:53:58;;;;;;;3.60;1.40;;;;;;;-144.47;42.37;53056.69;5050245;28;20024;-67
2022/07/04 08:59:08;;;;;;;9.05;1.70;;;;;;;-144.47;41.92;53074.56;5051681;28;20524;-68
2022/07/04 09:01:34;;;;;;;5.55;1.50;;;;;;;-144.47;41.60;53078.53;5051717;28;20025;-71
2022/07/04 09:04:01;;;;;;;10.50;1.67;;;;;;;-144.47;41.22;53048.75;5051487;28;20028;-70
2022/07/04 09:06:28;;;;;;;8.02;1.23;;;;;;;-144.47;40.96;53078.53;5051556;28;20055;-70
2022/07/04 09:08:54;;;;;;;3.92;1.00;;;;;;;-144.47;40.31;53058.69;5051873;28;20065;-67
2022/07/04 09:11:19;;;;;;;9.23;1.30;;;;;;;-144.47;40.14;53058.69;5051438;28;20029;-70
2022/07/04 09:13:46;;;;;;;4.05;1.00;;;;;;;-144.47;39.67;53090.47;5051640;28;20032;-69
2022/07/04 09:16:12;;;;;;;3.03;0.80;;;;;;;-144.47;38.82;53038.81;5050993;28;20024;-67
2022/07/04 09:18:37;;;;;;;5.55;1.10;;;;;;;-144.47;38.55;53052.72;5050790;28;20025;-70
2022/07/04 09:21:06;;;;;;;2.05;0.80;;;;;;;-144.47;38.26;53038.81;5048701;28;20052;-71
2022/07/04 09:23:32;;;;;;;;;;;;;;;-144.47;38.24;53034.84;5052031;28;20085;-67
2022/07/04 09:26:13;;;;;;;4.13;1.08;;;;;;;-144.47;38.76;53028.88;5051126;28;20366;-67
2022/07/04 09:28:41;;;;;;;5.93;1.08;;;;;;;-144.47;39.14;53054.72;5051315;28;20025;-71
2022/07/04 09:31:33;;;;;;;3.90;1.10;;;;;;;-144.47;38.97;53040.81;5051560;28;20028;-71
2022/07/04 09:34:00;;;;;;;7.93;1.17;;;;;;;-144.47;38.97;53074.56;5049426;28;20033;-70
2022/07/04 09:36:28;;;;;;;6.78;1.35;;;;;;;-144.47;39.06;53040.81;5050506;28;20505;-69
2022/07/04 09:39:14;;;;;;;2.55;1.13;;;;;;;-144.47;38.60;53056.69;5049567;28;20036;-70
2022/07/04 09:42:00;;;;;;;4.15;1.00;;;;;;;-144.47;38.81;53068.63;5050648;28;20064;-66
2022/07/04 09:44:25;;;;;;;7.22;1.40;;;;;;;-144.47;38.92;53050.75;5050449;28;20021;-67
2022/07/04 09:46:51;;;;;;;4.07;1.00;;;;;;;-144.47;39.14;53072.59;5050457;28;20512;-70
2022/07/04 09:49:17;;;;;;;3.40;1.20;;;;;;;-144.47;38.65;53074.56;5049623;28;20070;-71
2022/07/04 09:51:45;;;;;;;3.47;1.00;;;;;;;-144.47;38.37;53054.72;5050787;28;20503;-68
2022/07/04 09:54:13;;;;;;;4.35;1.00;;;;;;;-144.47;38.15;53052.72;5051819;28;20056;-69
2022/07/04 09:56:46;;;;;;;2.88;1.10;;;;;;;-144.47;38.01;53082.53;5050073;28;20115;-68
2022/07/04 09:59:12;;;;;;;2.22;1.08;;;;;;;-144.47;37.92;53034.84;5050305;28;20079;-69
2022/07/04 10:01:39;;;;;;;2.25;1.23;;;;;;;-144.47;37.56;53058.69;5050513;28;20017;-70
2022/07/04 10:04:05;;;;;;;2.28;1.13;;;;;;;-144.47;37.37;53042.78;5049948;28;20381;-70
2022/07/04 10:06:33;;;;;;;8.73;1.13;;;;;;;-144.47;36.93;53032.88;5042389;28;20116;-69
2022/07/04 10:09:16;;;;;;;;;;;;;;;-144.47;36.22;53038.81;5042969;28;20084;-71
2022/07/04 10:11:43;;;;;;;3.85;1.30;;;;;;;-144.47;36.53;53058.69;5041104;28;19923;-75
2022/07/04 10:14:11;;;;;;;7.55;1.27;;;;;;;-144.47;36.69;53024.91;5043112;28;20021;-72
2022/07/04 10:16:38;;;;;;;6.93;1.20;;;;;;;-144.47;36.11;53046.75;5043008;28;20044;-71
2022/07/04 10:19:05;;;;;;;3.03;1.13;;;;;;;-144.47;36.01;53074.56;5043078;28;20028;-70
2022/07/04 10:21:32;;;;;;;7.10;1.60;;;;;;;-144.47;35.99;53042.78;5042646;28;20039;-69
2022/07/04 10:23:58;;;;;;;3.28;1.00;;;;;;;-144.47;35.87;53062.66;5042686;28;20591;-69
2022/07/04 10:26:24;;;;;;;4.53;1.10;;;;;;;-144.47;36.37;53082.53;5042269;28;20039;-68
2022/07/04 10:28:51;;;;;;;5.20;1.20;;;;;;;-144.47;36.62;53076.56;5043499;28;20033;-70
2022/07/04 10:31:18;;;;;;;4.13;1.20;;;;;;;-144.47;36.80;53088.47;5043861;28;20108;-71
2022/07/04 10:33:45;;;;;;;3.63;1.20;;;;;;;-144.47;36.74;53058.69;5042429;28;20025;-68
2022/07/04 10:36:15;;;;;;;7.13;1.27;;;;;;;-144.47;37.10;53032.88;5043209;28;20028;-69
2022/07/04 10:38:55;;;;;;;5.90;1.58;;;;;;;-144.47;36.86;53066.63;5041129;28;20082;-73
2022/07/04 10:41:23;;;;;;;5.57;1.38;;;;;;;-144.47;36.88;53050.75;5042897;28;20486;-70
2022/07/04 10:43:48;;;;;;;8.63;1.50;;;;;;;-144.47;36.71;53056.69;5042387;28;20025;-71
2022/07/04 10:46:14;;;;;;;6.47;1.40;;;;;;;-144.47;36.76;53072.59;5042089;28;20103;-71
2022/07/04 10:48:52;;;;;;;7.55;1.70;;;;;;;-144.47;36.68;53082.53;5041513;28;20021;-69
2022/07/04 10:51:38;;;;;;;6.10;1.70;;;;;;;-144.47;36.40;53038.81;5041499;28;20520;-71
2022/07/04 10:54:05;;;;;;;3.47;1.30;;;;;;;-144.47;36.19;53032.88;5043193;28;20083;-71
2022/07/04 10:56:40;;;;;;;2.08;1.25;;;;;;;-144.47;36.03;53044.78;5042544;28;20029;-67
2022/07/04 10:59:09;;;;;;;5.22;1.60;;;;;;;-144.47;36.02;53046.75;5041560;28;20040;-68
2022/07/04 11:01:35;;;;;;;4.70;1.80;;;;;;;-144.47;36.14;53064.66;5041791;28;20517;-70
2022/07/04 11:04:00;;;;;;;6.30;1.65;;;;;;;-144.47;35.83;53042.78;5042144;28;20060;-67
2022/07/04 11:06:35;;;;;;;5.53;2.03;;;;;;;-144.47;35.54;53036.84;5041895;28;20675;-69
2022/07/04 11:09:17;;;;;;;6.10;1.92;;;;;;;-144.47;35.65;53028.88;5042631;28;20036;-69
2022/07/04 11:11:56;;;;;;;3.67;1.50;;;;;;;-144.47;36.06;53034.84;5040341;28;20017;-68
2022/07/04 11:14:40;;;;;;;9.93;1.77;;;;;;;-144.47;35.76;53003.06;5042023;28;20122;-70
2022/07/04 11:17:32;;;;;;;4.28;1.88;;;;;;;-144.47;35.79;53024.91;5041283;28;20024;-68
2022/07/04 11:20:03;;;;;;;7.82;2.15;;;;;;;-144.47;35.28;53028.88;5041353;28;20401;-69
2022/07/04 11:22:29;;;;;;;9.20;1.88;;;;;;;-144.47;34.94;53005.06;5040587;28;20585;-69
2022/07/04 11:24:56;;;;;;;4.03;1.60;;;;;;;-144.47;34.81;53042.78;5041704;28;20060;-68
2022/07/04 11:27:22;;;;;;;4.00;1.75;;;;;;;-144.47;34.34;53024.91;5041451;28;20025;-69
2022/07/04 11:29:52;;;;;;;5.55;1.90;;;;;;;-144.47;34.54;53042.78;5041655;28;20021;-68
2022/07/04 11:32:18;;;;;;;7.82;1.75;;;;;;;-144.47;35.11;53030.88;5041078;28;20033;-67